N624ML SCNT-SCTE
Flight info
| Callsign | N624ML |
|---|---|
| Flight time | 1h 30m |
| Altitude | 30000 |
| Route | KOLP3B KOLPU UQ802 CAUKE CAUK3A |
| Aircraft | C750/M-G/C |
Departure
| Time | 2026-05-08 22:27 |
|---|---|
| Airport | Lieutenant Julio Gallardo Airport (SCNT) |
Arrival
| Time | 2026-05-08 23:57 |
|---|---|
| Airport | El Tepual International Airport (SCTE) |
| Time | Latitude | Longitude | Altitude | Speed | Heading |
|---|---|---|---|---|---|
| 2026-05-08 22:19 | -51.66876 | -72.52837 | 228 ft | 0 kts | 9° |
| 2026-05-08 22:21 | -51.66865 | -72.52857 | 228 ft | 4 kts | 264° |
| 2026-05-08 22:21 | -51.66886 | -72.52913 | 226 ft | 7 kts | 231° |
| 2026-05-08 22:21 | -51.66920 | -72.52956 | 225 ft | 0 kts | 212° |
| 2026-05-08 22:22 | -51.66921 | -72.52957 | 225 ft | 0 kts | 212° |
| 2026-05-08 22:23 | -51.66940 | -72.52975 | 226 ft | 5 kts | 212° |
| 2026-05-08 22:23 | -51.66976 | -72.53011 | 225 ft | 6 kts | 215° |
| 2026-05-08 22:23 | -51.66985 | -72.53114 | 223 ft | 18 kts | 296° |
| 2026-05-08 22:23 | -51.66911 | -72.53311 | 222 ft | 20 kts | 298° |
| 2026-05-08 22:24 | -51.66851 | -72.53525 | 221 ft | 21 kts | 299° |
| 2026-05-08 22:24 | -51.66770 | -72.53732 | 218 ft | 22 kts | 306° |
| 2026-05-08 22:24 | -51.66689 | -72.53917 | 218 ft | 10 kts | 314° |
| 2026-05-08 22:24 | -51.66695 | -72.53961 | 217 ft | 8 kts | 115° |
| 2026-05-08 22:25 | -51.66703 | -72.53919 | 217 ft | 0 kts | 116° |
| 2026-05-08 22:25 | -51.66705 | -72.53915 | 217 ft | 0 kts | 116° |
| 2026-05-08 22:25 | -51.66707 | -72.53909 | 217 ft | 0 kts | 116° |
| 2026-05-08 22:26 | -51.66717 | -72.53875 | 217 ft | 21 kts | 118° |
| 2026-05-08 22:26 | -51.66938 | -72.53241 | 222 ft | 108 kts | 120° |
| 2026-05-08 22:26 | -51.67438 | -72.51816 | 324 ft | 176 kts | 118° |
| 2026-05-08 22:26 | -51.68216 | -72.49843 | 762 ft | 224 kts | 130° |
| 2026-05-08 22:27 | -51.69371 | -72.48498 | 2437 ft | 210 kts | 146° |
| 2026-05-08 22:27 | -51.70808 | -72.47307 | 2185 ft | 284 kts | 161° |
| 2026-05-08 22:27 | -51.72966 | -72.46949 | 2101 ft | 337 kts | 182° |
| 2026-05-08 22:27 | -51.75447 | -72.47828 | 2082 ft | 374 kts | 201° |
| 2026-05-08 22:28 | -51.77649 | -72.49613 | 2258 ft | 333 kts | 205° |
| 2026-05-08 22:28 | -51.79622 | -72.50658 | 3144 ft | 269 kts | 189° |
| 2026-05-08 22:28 | -51.81328 | -72.51581 | 3000 ft | 257 kts | 216° |
| 2026-05-08 22:28 | -51.82261 | -72.53753 | 3357 ft | 224 kts | 258° |
| 2026-05-08 22:29 | -51.82092 | -72.56258 | 3826 ft | 235 kts | 300° |
| 2026-05-08 22:29 | -51.80857 | -72.58158 | 4434 ft | 251 kts | 336° |
| 2026-05-08 22:29 | -51.79098 | -72.58535 | 5009 ft | 265 kts | 4° |
| 2026-05-08 22:29 | -51.77238 | -72.58110 | 5589 ft | 273 kts | 5° |
| 2026-05-08 22:30 | -51.75348 | -72.57710 | 6098 ft | 261 kts | 5° |
| 2026-05-08 22:30 | -51.73494 | -72.57305 | 6429 ft | 256 kts | 4° |
| 2026-05-08 22:30 | -51.71748 | -72.56921 | 6936 ft | 250 kts | 4° |
| 2026-05-08 22:30 | -51.70003 | -72.57067 | 7451 ft | 247 kts | 343° |
| 2026-05-08 22:31 | -51.68322 | -72.57916 | 8003 ft | 252 kts | 339° |
| 2026-05-08 22:31 | -51.66616 | -72.58951 | 8516 ft | 259 kts | 336° |
| 2026-05-08 22:31 | -51.64856 | -72.60076 | 9069 ft | 265 kts | 336° |
| 2026-05-08 22:31 | -51.63059 | -72.61249 | 9614 ft | 271 kts | 336° |
| 2026-05-08 22:32 | -51.61187 | -72.62472 | 10163 ft | 285 kts | 336° |
| 2026-05-08 22:32 | -51.59260 | -72.63725 | 10706 ft | 301 kts | 336° |
| 2026-05-08 22:32 | -51.57259 | -72.65034 | 11235 ft | 319 kts | 336° |
| 2026-05-08 22:32 | -51.55106 | -72.66428 | 11793 ft | 343 kts | 336° |
| 2026-05-08 22:33 | -51.52836 | -72.67909 | 12323 ft | 365 kts | 336° |
| 2026-05-08 22:33 | -51.50435 | -72.69459 | 12844 ft | 384 kts | 336° |
| 2026-05-08 22:33 | -51.47942 | -72.71076 | 13340 ft | 393 kts | 336° |
| 2026-05-08 22:33 | -51.45373 | -72.72737 | 13837 ft | 400 kts | 336° |
| 2026-05-08 22:34 | -51.42841 | -72.74865 | 14353 ft | 404 kts | 329° |
| 2026-05-08 22:34 | -51.40009 | -72.76366 | 14799 ft | 415 kts | 353° |
| 2026-05-08 22:34 | -51.37034 | -72.76530 | 15323 ft | 419 kts | 352° |
| 2026-05-08 22:34 | -51.34273 | -72.78303 | 15830 ft | 420 kts | 324° |
| 2026-05-08 22:35 | -51.32096 | -72.81637 | 16385 ft | 421 kts | 314° |
| 2026-05-08 22:35 | -51.29761 | -72.84881 | 16892 ft | 425 kts | 319° |
| 2026-05-08 22:35 | -51.27507 | -72.88029 | 17355 ft | 429 kts | 318° |
| 2026-05-08 22:35 | -51.25162 | -72.91203 | 17853 ft | 432 kts | 321° |
| 2026-05-08 22:36 | -51.22812 | -72.94261 | 18338 ft | 435 kts | 320° |
| 2026-05-08 22:36 | -51.20443 | -72.97360 | 18820 ft | 438 kts | 320° |
| 2026-05-08 22:36 | -51.17981 | -73.00445 | 19280 ft | 440 kts | 322° |
| 2026-05-08 22:36 | -51.15517 | -73.03524 | 19759 ft | 441 kts | 320° |
| 2026-05-08 22:37 | -51.13032 | -73.06689 | 20230 ft | 443 kts | 320° |
| 2026-05-08 22:37 | -51.10545 | -73.09879 | 20724 ft | 444 kts | 319° |
| 2026-05-08 22:37 | -51.08081 | -73.13032 | 21211 ft | 448 kts | 319° |
| 2026-05-08 22:37 | -51.05547 | -73.16283 | 21706 ft | 455 kts | 318° |
| 2026-05-08 22:38 | -51.02988 | -73.19553 | 22201 ft | 461 kts | 318° |
| 2026-05-08 22:38 | -51.00425 | -73.22819 | 22686 ft | 467 kts | 318° |
| 2026-05-08 22:38 | -50.97769 | -73.26205 | 23174 ft | 472 kts | 317° |
| 2026-05-08 22:38 | -50.95101 | -73.29604 | 23655 ft | 477 kts | 317° |
| 2026-05-08 22:39 | -50.92419 | -73.33019 | 24148 ft | 480 kts | 317° |
| 2026-05-08 22:39 | -50.89697 | -73.36463 | 24647 ft | 484 kts | 316° |
| 2026-05-08 22:39 | -50.86908 | -73.39999 | 25178 ft | 487 kts | 316° |
| 2026-05-08 22:39 | -50.84119 | -73.43531 | 25702 ft | 489 kts | 316° |
| 2026-05-08 22:40 | -50.81318 | -73.47069 | 26225 ft | 491 kts | 315° |
| 2026-05-08 22:40 | -50.78513 | -73.50581 | 26676 ft | 494 kts | 316° |
| 2026-05-08 22:40 | -50.75715 | -73.54115 | 27209 ft | 494 kts | 316° |
| 2026-05-08 22:40 | -50.72865 | -73.57690 | 27736 ft | 494 kts | 315° |
| 2026-05-08 22:41 | -50.70065 | -73.61211 | 28249 ft | 493 kts | 315° |
| 2026-05-08 22:41 | -50.67314 | -73.64655 | 28737 ft | 495 kts | 315° |
| 2026-05-08 22:41 | -50.64522 | -73.68154 | 29284 ft | 498 kts | 315° |
| 2026-05-08 22:41 | -50.61737 | -73.71618 | 29890 ft | 500 kts | 315° |
| 2026-05-08 22:42 | -50.58876 | -73.75202 | 30255 ft | 507 kts | 315° |
| 2026-05-08 22:42 | -50.56006 | -73.78782 | 30371 ft | 519 kts | 314° |
| 2026-05-08 22:42 | -50.53077 | -73.82424 | 30434 ft | 532 kts | 315° |
| 2026-05-08 22:43 | -50.47074 | -73.89858 | 30369 ft | 531 kts | 315° |
| 2026-05-08 22:43 | -50.41165 | -73.97168 | 30371 ft | 531 kts | 315° |
| 2026-05-08 22:43 | -50.37996 | -74.00465 | 30323 ft | 545 kts | 328° |
| 2026-05-08 22:44 | -50.34195 | -74.02177 | 30385 ft | 559 kts | 346° |
| 2026-05-08 22:44 | -50.30170 | -74.02174 | 30391 ft | 571 kts | 4° |
| 2026-05-08 22:44 | -50.26171 | -74.01413 | 30389 ft | 569 kts | 0° |
| 2026-05-08 22:45 | -50.18290 | -74.00305 | 30413 ft | 569 kts | 1° |
| 2026-05-08 22:45 | -50.10299 | -73.99241 | 30414 ft | 570 kts | 1° |
| 2026-05-08 22:46 | -50.02111 | -73.98162 | 30416 ft | 572 kts | 1° |
| 2026-05-08 22:46 | -49.94138 | -73.97114 | 30414 ft | 574 kts | 1° |
| 2026-05-08 22:47 | -49.86021 | -73.96049 | 30388 ft | 575 kts | 1° |
| 2026-05-08 22:47 | -49.77917 | -73.94979 | 30378 ft | 574 kts | 1° |
| 2026-05-08 22:48 | -49.69886 | -73.93933 | 30368 ft | 574 kts | 1° |
| 2026-05-08 22:48 | -49.61705 | -73.92879 | 30380 ft | 574 kts | 1° |
| 2026-05-08 22:49 | -49.53733 | -73.91841 | 30370 ft | 575 kts | 1° |
| 2026-05-08 22:49 | -49.41803 | -73.90305 | 30382 ft | 576 kts | 1° |
| 2026-05-08 22:50 | -49.33808 | -73.89278 | 30391 ft | 576 kts | 2° |
| 2026-05-08 22:50 | -49.25808 | -73.88252 | 30405 ft | 577 kts | 1° |
| 2026-05-08 22:51 | -49.17773 | -73.87227 | 30415 ft | 578 kts | 1° |
| 2026-05-08 22:51 | -49.09541 | -73.86182 | 30402 ft | 579 kts | 1° |
| 2026-05-08 22:52 | -49.01498 | -73.85161 | 30410 ft | 579 kts | 1° |
| 2026-05-08 22:52 | -48.93396 | -73.84133 | 30407 ft | 580 kts | 1° |
| 2026-05-08 22:53 | -48.85338 | -73.83124 | 30392 ft | 581 kts | 1° |
| 2026-05-08 22:53 | -48.77305 | -73.82114 | 30386 ft | 581 kts | 1° |
| 2026-05-08 22:54 | -48.69237 | -73.81100 | 30388 ft | 581 kts | 1° |
| 2026-05-08 22:54 | -48.61179 | -73.80103 | 30377 ft | 582 kts | 1° |
| 2026-05-08 22:55 | -48.53082 | -73.79099 | 30386 ft | 583 kts | 2° |
| 2026-05-08 22:55 | -48.45028 | -73.78095 | 30387 ft | 584 kts | 2° |
| 2026-05-08 22:56 | -48.36926 | -73.77100 | 30394 ft | 584 kts | 2° |
| 2026-05-08 22:56 | -48.28863 | -73.76103 | 30405 ft | 586 kts | 2° |
| 2026-05-08 22:57 | -48.20558 | -73.75081 | 30411 ft | 586 kts | 1° |
| 2026-05-08 22:57 | -48.12047 | -73.74058 | 30440 ft | 588 kts | 2° |
| 2026-05-08 22:58 | -48.03561 | -73.73013 | 30475 ft | 588 kts | 1° |
| 2026-05-08 22:58 | -47.95058 | -73.71989 | 30493 ft | 590 kts | 2° |
| 2026-05-08 22:59 | -47.86754 | -73.70988 | 30480 ft | 591 kts | 2° |
| 2026-05-08 22:59 | -47.78549 | -73.69992 | 30471 ft | 592 kts | 2° |
| 2026-05-08 23:00 | -47.70343 | -73.69010 | 30474 ft | 592 kts | 2° |
| 2026-05-08 23:00 | -47.62144 | -73.68024 | 30462 ft | 593 kts | 2° |
| 2026-05-08 23:01 | -47.53883 | -73.67048 | 30456 ft | 594 kts | 2° |
| 2026-05-08 23:01 | -47.45558 | -73.66059 | 30445 ft | 595 kts | 2° |
| 2026-05-08 23:02 | -47.37303 | -73.65083 | 30400 ft | 596 kts | 2° |
| 2026-05-08 23:02 | -47.28963 | -73.64098 | 30416 ft | 597 kts | 2° |
| 2026-05-08 23:03 | -47.20694 | -73.63115 | 30463 ft | 597 kts | 2° |
| 2026-05-08 23:03 | -47.12355 | -73.62138 | 30456 ft | 598 kts | 2° |
| 2026-05-08 23:04 | -47.04035 | -73.61163 | 30445 ft | 599 kts | 3° |
| 2026-05-08 23:04 | -46.95641 | -73.60467 | 30453 ft | 598 kts | 359° |
| 2026-05-08 23:05 | -46.87318 | -73.60095 | 30431 ft | 600 kts | 360° |
| 2026-05-08 23:05 | -46.78971 | -73.59702 | 30440 ft | 600 kts | 359° |
| 2026-05-08 23:06 | -46.70630 | -73.59319 | 30425 ft | 600 kts | 0° |
| 2026-05-08 23:06 | -46.62273 | -73.58916 | 30405 ft | 601 kts | 360° |
| 2026-05-08 23:07 | -46.53873 | -73.58518 | 30409 ft | 601 kts | 0° |
| 2026-05-08 23:07 | -46.45340 | -73.58130 | 30428 ft | 601 kts | 360° |
| 2026-05-08 23:08 | -46.36794 | -73.57736 | 30445 ft | 602 kts | 0° |
| 2026-05-08 23:08 | -46.28257 | -73.57333 | 30444 ft | 602 kts | 0° |
| 2026-05-08 23:09 | -46.19674 | -73.56932 | 30438 ft | 603 kts | 360° |
| 2026-05-08 23:09 | -46.11074 | -73.56548 | 30438 ft | 604 kts | 360° |
| 2026-05-08 23:10 | -46.02409 | -73.56150 | 30449 ft | 605 kts | 0° |
| 2026-05-08 23:10 | -45.93678 | -73.55753 | 30447 ft | 606 kts | 0° |
| 2026-05-08 23:11 | -45.84893 | -73.55345 | 30439 ft | 606 kts | 0° |
| 2026-05-08 23:11 | -45.76233 | -73.54958 | 30466 ft | 605 kts | 1° |
| 2026-05-08 23:12 | -45.67546 | -73.54567 | 30468 ft | 605 kts | 0° |
| 2026-05-08 23:12 | -45.58892 | -73.54173 | 30459 ft | 605 kts | 0° |
| 2026-05-08 23:13 | -45.50464 | -73.53795 | 30449 ft | 606 kts | 0° |
| 2026-05-08 23:13 | -45.41967 | -73.53407 | 30460 ft | 606 kts | 1° |
| 2026-05-08 23:14 | -45.33433 | -73.53040 | 30473 ft | 606 kts | 0° |
| 2026-05-08 23:14 | -45.25012 | -73.52658 | 30473 ft | 607 kts | 1° |
| 2026-05-08 23:15 | -45.16368 | -73.52277 | 30485 ft | 607 kts | 1° |
| 2026-05-08 23:15 | -45.07944 | -73.51268 | 30482 ft | 608 kts | 4° |
| 2026-05-08 23:16 | -44.99533 | -73.50192 | 30476 ft | 610 kts | 4° |
| 2026-05-08 23:16 | -44.91006 | -73.49123 | 30477 ft | 611 kts | 5° |
| 2026-05-08 23:17 | -44.82273 | -73.48041 | 30444 ft | 611 kts | 5° |
| 2026-05-08 23:17 | -44.73639 | -73.46963 | 30448 ft | 611 kts | 5° |
| 2026-05-08 23:18 | -44.65020 | -73.45901 | 30437 ft | 611 kts | 4° |
| 2026-05-08 23:18 | -44.56576 | -73.44861 | 30436 ft | 612 kts | 5° |
| 2026-05-08 23:19 | -44.48058 | -73.43811 | 30429 ft | 612 kts | 5° |
| 2026-05-08 23:19 | -44.39428 | -73.42741 | 30432 ft | 613 kts | 5° |
| 2026-05-08 23:20 | -44.30679 | -73.41677 | 30429 ft | 613 kts | 5° |
| 2026-05-08 23:20 | -44.22215 | -73.40633 | 30430 ft | 614 kts | 5° |
| 2026-05-08 23:21 | -44.13685 | -73.39604 | 30431 ft | 615 kts | 5° |
| 2026-05-08 23:21 | -44.05160 | -73.38571 | 30429 ft | 616 kts | 5° |
| 2026-05-08 23:22 | -43.96640 | -73.37537 | 30426 ft | 617 kts | 5° |
| 2026-05-08 23:22 | -43.88104 | -73.36501 | 30439 ft | 613 kts | 5° |
| 2026-05-08 23:23 | -43.83905 | -73.36011 | 29664 ft | 610 kts | 5° |
| 2026-05-08 23:23 | -43.79677 | -73.35491 | 28903 ft | 601 kts | 6° |
| 2026-05-08 23:23 | -43.75608 | -73.35004 | 28150 ft | 590 kts | 5° |
| 2026-05-08 23:23 | -43.71526 | -73.34515 | 27380 ft | 580 kts | 4° |
| 2026-05-08 23:24 | -43.67556 | -73.34045 | 26623 ft | 570 kts | 5° |
| 2026-05-08 23:24 | -43.63627 | -73.33573 | 25861 ft | 562 kts | 5° |
| 2026-05-08 23:24 | -43.59820 | -73.33115 | 25115 ft | 554 kts | 5° |
| 2026-05-08 23:24 | -43.55968 | -73.32662 | 24325 ft | 546 kts | 5° |
| 2026-05-08 23:25 | -43.52188 | -73.32213 | 23614 ft | 538 kts | 5° |
| 2026-05-08 23:25 | -43.48528 | -73.31767 | 22903 ft | 531 kts | 5° |
| 2026-05-08 23:25 | -43.44850 | -73.31337 | 22176 ft | 524 kts | 6° |
| 2026-05-08 23:25 | -43.41246 | -73.30905 | 21486 ft | 518 kts | 5° |
| 2026-05-08 23:26 | -43.37730 | -73.30493 | 20997 ft | 507 kts | 6° |
| 2026-05-08 23:26 | -43.34234 | -73.30077 | 20571 ft | 497 kts | 6° |
| 2026-05-08 23:26 | -43.30840 | -73.29677 | 19998 ft | 492 kts | 6° |
| 2026-05-08 23:26 | -43.27434 | -73.29268 | 19399 ft | 487 kts | 6° |
| 2026-05-08 23:27 | -43.24099 | -73.28873 | 18817 ft | 483 kts | 6° |
| 2026-05-08 23:27 | -43.20738 | -73.28484 | 18232 ft | 479 kts | 6° |
| 2026-05-08 23:27 | -43.17471 | -73.28099 | 17674 ft | 476 kts | 6° |
| 2026-05-08 23:27 | -43.14171 | -73.27723 | 17109 ft | 472 kts | 6° |
| 2026-05-08 23:28 | -43.10919 | -73.27370 | 16544 ft | 468 kts | 6° |
| 2026-05-08 23:28 | -43.07690 | -73.27029 | 16021 ft | 462 kts | 6° |
| 2026-05-08 23:28 | -43.04519 | -73.26700 | 15499 ft | 456 kts | 6° |
| 2026-05-08 23:28 | -43.01411 | -73.26363 | 15001 ft | 450 kts | 6° |
| 2026-05-08 23:29 | -42.98309 | -73.26042 | 14491 ft | 444 kts | 7° |
| 2026-05-08 23:29 | -42.95249 | -73.25719 | 13982 ft | 431 kts | 7° |
| 2026-05-08 23:29 | -42.92327 | -73.25404 | 13439 ft | 412 kts | 7° |
| 2026-05-08 23:29 | -42.89514 | -73.25109 | 12890 ft | 398 kts | 7° |
| 2026-05-08 23:30 | -42.86828 | -73.24827 | 12326 ft | 379 kts | 7° |
| 2026-05-08 23:30 | -42.84249 | -73.24555 | 11748 ft | 362 kts | 6° |
| 2026-05-08 23:30 | -42.81811 | -73.24294 | 11249 ft | 348 kts | 6° |
| 2026-05-08 23:30 | -42.79465 | -73.24048 | 10686 ft | 331 kts | 6° |
| 2026-05-08 23:31 | -42.77220 | -73.23816 | 10148 ft | 312 kts | 6° |
| 2026-05-08 23:31 | -42.75132 | -73.23596 | 9576 ft | 292 kts | 6° |
| 2026-05-08 23:31 | -42.73154 | -73.23389 | 9018 ft | 276 kts | 6° |
| 2026-05-08 23:31 | -42.71300 | -73.23196 | 8549 ft | 259 kts | 6° |
| 2026-05-08 23:32 | -42.69540 | -73.23012 | 8111 ft | 255 kts | 7° |
| 2026-05-08 23:32 | -42.67789 | -73.22826 | 7620 ft | 251 kts | 6° |
| 2026-05-08 23:32 | -42.66052 | -73.22648 | 7092 ft | 248 kts | 6° |
| 2026-05-08 23:32 | -42.64340 | -73.22465 | 6576 ft | 244 kts | 6° |
| 2026-05-08 23:33 | -42.62657 | -73.22291 | 6072 ft | 240 kts | 6° |
| 2026-05-08 23:33 | -42.61006 | -73.22119 | 5564 ft | 237 kts | 7° |
| 2026-05-08 23:33 | -42.59383 | -73.21957 | 5209 ft | 232 kts | 7° |
| 2026-05-08 23:33 | -42.57800 | -73.21788 | 5010 ft | 225 kts | 7° |
| 2026-05-08 23:34 | -42.56196 | -73.21621 | 4991 ft | 232 kts | 7° |
| 2026-05-08 23:34 | -42.54569 | -73.21442 | 5010 ft | 239 kts | 6° |
| 2026-05-08 23:34 | -42.52864 | -73.21268 | 5007 ft | 247 kts | 6° |
| 2026-05-08 23:34 | -42.51152 | -73.21088 | 5001 ft | 248 kts | 6° |
| 2026-05-08 23:35 | -42.49439 | -73.20916 | 5002 ft | 248 kts | 6° |
| 2026-05-08 23:35 | -42.47714 | -73.20735 | 4999 ft | 248 kts | 7° |
| 2026-05-08 23:35 | -42.45962 | -73.20552 | 5001 ft | 251 kts | 7° |
| 2026-05-08 23:35 | -42.44221 | -73.20367 | 4997 ft | 251 kts | 7° |
| 2026-05-08 23:36 | -42.42461 | -73.20203 | 4995 ft | 252 kts | 4° |
| 2026-05-08 23:36 | -42.40692 | -73.20258 | 4998 ft | 253 kts | 360° |
| 2026-05-08 23:36 | -42.38943 | -73.20331 | 4991 ft | 254 kts | 0° |
| 2026-05-08 23:36 | -42.37166 | -73.20403 | 5005 ft | 253 kts | 1° |
| 2026-05-08 23:37 | -42.35389 | -73.20476 | 5003 ft | 255 kts | 0° |
| 2026-05-08 23:37 | -42.33618 | -73.20541 | 4998 ft | 257 kts | 0° |
| 2026-05-08 23:37 | -42.31818 | -73.20613 | 4997 ft | 259 kts | 0° |
| 2026-05-08 23:37 | -42.29993 | -73.20689 | 4991 ft | 261 kts | 1° |
| 2026-05-08 23:38 | -42.28184 | -73.20762 | 4994 ft | 262 kts | 1° |
| 2026-05-08 23:38 | -42.26343 | -73.20829 | 4998 ft | 263 kts | 1° |
| 2026-05-08 23:38 | -42.24521 | -73.20901 | 4998 ft | 264 kts | 0° |
| 2026-05-08 23:38 | -42.22673 | -73.20974 | 4993 ft | 263 kts | 1° |
| 2026-05-08 23:39 | -42.20863 | -73.21048 | 5001 ft | 261 kts | 0° |
| 2026-05-08 23:39 | -42.19034 | -73.21117 | 4994 ft | 259 kts | 1° |
| 2026-05-08 23:39 | -42.17246 | -73.21191 | 4996 ft | 258 kts | 1° |
| 2026-05-08 23:39 | -42.15458 | -73.21259 | 4999 ft | 257 kts | 1° |
| 2026-05-08 23:40 | -42.13678 | -73.21332 | 5010 ft | 256 kts | 1° |
| 2026-05-08 23:40 | -42.11895 | -73.21397 | 4998 ft | 256 kts | 1° |
| 2026-05-08 23:40 | -42.10092 | -73.21466 | 4999 ft | 256 kts | 1° |
| 2026-05-08 23:40 | -42.08324 | -73.21535 | 5010 ft | 256 kts | 1° |
| 2026-05-08 23:41 | -42.06532 | -73.21609 | 5012 ft | 256 kts | 1° |
| 2026-05-08 23:41 | -42.04761 | -73.21673 | 5010 ft | 255 kts | 1° |
| 2026-05-08 23:41 | -42.02989 | -73.21742 | 5002 ft | 256 kts | 0° |
| 2026-05-08 23:41 | -42.01200 | -73.21814 | 5002 ft | 255 kts | 1° |
| 2026-05-08 23:42 | -41.99418 | -73.21886 | 5006 ft | 255 kts | 0° |
| 2026-05-08 23:42 | -41.97645 | -73.21950 | 5005 ft | 255 kts | 1° |
| 2026-05-08 23:42 | -41.95874 | -73.22022 | 5006 ft | 255 kts | 1° |
| 2026-05-08 23:42 | -41.94079 | -73.22091 | 5008 ft | 255 kts | 1° |
| 2026-05-08 23:43 | -41.92307 | -73.22160 | 5009 ft | 256 kts | 1° |
| 2026-05-08 23:43 | -41.90507 | -73.22231 | 4986 ft | 257 kts | 1° |
| 2026-05-08 23:43 | -41.88726 | -73.22301 | 5004 ft | 257 kts | 1° |
| 2026-05-08 23:43 | -41.86911 | -73.22366 | 5011 ft | 258 kts | 0° |
| 2026-05-08 23:44 | -41.85087 | -73.22442 | 5011 ft | 259 kts | 1° |
| 2026-05-08 23:44 | -41.83216 | -73.22513 | 5007 ft | 260 kts | 1° |
| 2026-05-08 23:44 | -41.81379 | -73.22581 | 5001 ft | 260 kts | 1° |
| 2026-05-08 23:44 | -41.79566 | -73.22653 | 5006 ft | 260 kts | 1° |
| 2026-05-08 23:45 | -41.77752 | -73.22723 | 5006 ft | 261 kts | 1° |
| 2026-05-08 23:45 | -41.75938 | -73.22793 | 5005 ft | 261 kts | 0° |
| 2026-05-08 23:45 | -41.74035 | -73.22867 | 5002 ft | 262 kts | 0° |
| 2026-05-08 23:45 | -41.72178 | -73.22941 | 5003 ft | 261 kts | 0° |
| 2026-05-08 23:46 | -41.70335 | -73.23011 | 5007 ft | 262 kts | 0° |
| 2026-05-08 23:46 | -41.68511 | -73.23083 | 5004 ft | 262 kts | 0° |
| 2026-05-08 23:46 | -41.66687 | -73.23148 | 5002 ft | 262 kts | 0° |
| 2026-05-08 23:46 | -41.64851 | -73.23222 | 5000 ft | 262 kts | 0° |
| 2026-05-08 23:47 | -41.63036 | -73.23296 | 5002 ft | 261 kts | 0° |
| 2026-05-08 23:47 | -41.61197 | -73.23355 | 4997 ft | 261 kts | 2° |
| 2026-05-08 23:47 | -41.59389 | -73.23261 | 4994 ft | 260 kts | 4° |
| 2026-05-08 23:47 | -41.57569 | -73.23180 | 4963 ft | 261 kts | 4° |
| 2026-05-08 23:48 | -41.55751 | -73.23097 | 4970 ft | 259 kts | 4° |
| 2026-05-08 23:48 | -41.53968 | -73.23010 | 4986 ft | 257 kts | 4° |
| 2026-05-08 23:48 | -41.52169 | -73.22930 | 4980 ft | 258 kts | 4° |
| 2026-05-08 23:48 | -41.50392 | -73.22848 | 4994 ft | 257 kts | 4° |
| 2026-05-08 23:49 | -41.48590 | -73.22765 | 4985 ft | 257 kts | 4° |
| 2026-05-08 23:49 | -41.46804 | -73.22678 | 4986 ft | 257 kts | 4° |
| 2026-05-08 23:49 | -41.45004 | -73.22601 | 4984 ft | 257 kts | 4° |
| 2026-05-08 23:49 | -41.43212 | -73.22529 | 4984 ft | 257 kts | 4° |
| 2026-05-08 23:50 | -41.41420 | -73.22478 | 4982 ft | 257 kts | 4° |
| 2026-05-08 23:50 | -41.39623 | -73.22424 | 4978 ft | 257 kts | 3° |
| 2026-05-08 23:50 | -41.37830 | -73.22368 | 4981 ft | 257 kts | 4° |
| 2026-05-08 23:50 | -41.36060 | -73.22318 | 4984 ft | 256 kts | 4° |
| 2026-05-08 23:51 | -41.34257 | -73.22265 | 4976 ft | 255 kts | 3° |
| 2026-05-08 23:51 | -41.32481 | -73.22216 | 4972 ft | 255 kts | 4° |
| 2026-05-08 23:51 | -41.30685 | -73.22163 | 4897 ft | 259 kts | 4° |
| 2026-05-08 23:51 | -41.28850 | -73.22104 | 4705 ft | 265 kts | 4° |
| 2026-05-08 23:52 | -41.27099 | -73.21501 | 4444 ft | 268 kts | 33° |
| 2026-05-08 23:52 | -41.25866 | -73.19663 | 4059 ft | 272 kts | 66° |
| 2026-05-08 23:52 | -41.25605 | -73.17165 | 3749 ft | 275 kts | 98° |
| 2026-05-08 23:52 | -41.25820 | -73.14639 | 3576 ft | 275 kts | 91° |
| 2026-05-08 23:53 | -41.25919 | -73.12196 | 3347 ft | 255 kts | 101° |
| 2026-05-08 23:53 | -41.26764 | -73.10255 | 3098 ft | 240 kts | 139° |
| 2026-05-08 23:53 | -41.28211 | -73.09346 | 2936 ft | 221 kts | 162° |
| 2026-05-08 23:53 | -41.29686 | -73.09062 | 2705 ft | 208 kts | 173° |
| 2026-05-08 23:54 | -41.31109 | -73.08997 | 2429 ft | 199 kts | 177° |
| 2026-05-08 23:54 | -41.32462 | -73.09013 | 2241 ft | 184 kts | 178° |
| 2026-05-08 23:54 | -41.33721 | -73.09043 | 2020 ft | 178 kts | 178° |
| 2026-05-08 23:55 | -41.35975 | -73.09113 | 1654 ft | 152 kts | 178° |
| 2026-05-08 23:55 | -41.37035 | -73.09139 | 1368 ft | 150 kts | 178° |
| 2026-05-08 23:55 | -41.38063 | -73.09174 | 1151 ft | 144 kts | 178° |
| 2026-05-08 23:55 | -41.39066 | -73.09216 | 999 ft | 143 kts | 180° |
| 2026-05-08 23:56 | -41.40054 | -73.09259 | 796 ft | 143 kts | 178° |
| 2026-05-08 23:56 | -41.41052 | -73.09289 | 645 ft | 143 kts | 179° |
| 2026-05-08 23:56 | -41.42020 | -73.09320 | 443 ft | 135 kts | 179° |
| 2026-05-08 23:56 | -41.42947 | -73.09366 | 283 ft | 123 kts | 180° |
| 2026-05-08 23:57 | -41.43635 | -73.09382 | 279 ft | 68 kts | 179° |
| 2026-05-08 23:57 | -41.43898 | -73.09392 | 280 ft | 22 kts | 182° |
| 2026-05-08 23:57 | -41.44016 | -73.09401 | 280 ft | 10 kts | 181° |
| 2026-05-08 23:57 | -41.44066 | -73.09480 | 280 ft | 9 kts | 270° |
| 2026-05-08 23:58 | -41.44066 | -73.09486 | 280 ft | 0 kts | 270° |
| 2026-05-08 23:58 | -41.44065 | -73.09530 | 280 ft | 10 kts | 271° |
| 2026-05-08 23:58 | -41.44037 | -73.09621 | 280 ft | 11 kts | 342° |
| 2026-05-08 23:59 | -41.43951 | -73.09626 | 280 ft | 12 kts | 1° |
| 2026-05-08 23:59 | -41.43857 | -73.09623 | 280 ft | 14 kts | 1° |
| 2026-05-08 23:59 | -41.43753 | -73.09620 | 278 ft | 16 kts | 2° |
| 2026-05-08 23:59 | -41.43663 | -73.09642 | 277 ft | 12 kts | 323° |
| 2026-05-09 00:00 | -41.43646 | -73.09679 | 277 ft | 3 kts | 316° |
| 2026-05-09 00:00 | -41.43620 | -73.09690 | 277 ft | 4 kts | 333° |
| 2026-05-09 00:00 | -41.43628 | -73.09713 | 277 ft | 4 kts | 162° |
| 2026-05-09 00:00 | -41.43636 | -73.09689 | 277 ft | 0 kts | 95° |